Time;durP1;ratioP1;P1;durP2;ratioP2;P2;SDS_P1;SDS_P2;PMS_P1;PMS_P2;Temp;Humidity;BMP_temperature;BMP_pressure;BME280_temperature;BME280_humidity;BME280_pressure;Samples;Min_cycle;Max_cycle;Signal;HPM_P1;HPM_P2
2021/11/28 00:01:50;;;;;;;25.48;15.50;;;0.30;99.90;;;;;;5095449;28;20024;-70
2021/11/28 00:04:15;;;;;;;29.02;15.75;;;0.30;99.90;;;;;;5097211;28;20024;-69
2021/11/28 00:06:51;;;;;;;33.97;17.23;;;0.30;99.90;;;;;;5078452;28;20035;-70
2021/11/28 00:14:54;;;;;;;28.98;15.70;;;0.50;99.90;;;;;;5096217;28;20063;-69
2021/11/28 00:17:20;;;;;;;21.42;11.50;;;0.50;99.90;;;;;;5096927;28;20028;-70
2021/11/28 00:19:46;;;;;;;27.48;16.08;;;0.50;99.90;;;;;;5095090;28;20032;-70
2021/11/28 00:22:12;;;;;;;29.00;15.48;;;0.50;99.90;;;;;;5096529;28;20023;-70
2021/11/28 00:24:38;;;;;;;27.48;16.30;;;0.50;99.90;;;;;;5096771;28;20043;-70
2021/11/28 00:27:05;;;;;;;34.92;16.08;;;0.50;99.90;;;;;;5094476;28;20020;-70
2021/11/28 00:29:32;;;;;;;27.83;15.93;;;0.60;99.90;;;;;;5094865;28;20392;-70
2021/11/28 00:31:58;;;;;;;32.70;15.98;;;0.60;99.90;;;;;;5095140;28;20020;-70
2021/11/28 00:34:24;;;;;;;26.15;14.68;;;0.60;99.90;;;;;;5077892;28;20035;-70
2021/11/28 00:36:50;;;;;;;30.00;16.75;;;0.60;99.90;;;;;;5095580;28;20020;-70
2021/11/28 00:39:15;;;;;;;27.42;15.48;;;0.60;99.90;;;;;;5095533;28;20024;-70
2021/11/28 00:41:41;;;;;;;26.50;15.95;;;0.70;99.90;;;;;;5096221;28;20468;-69
2021/11/28 00:44:07;;;;;;;30.73;15.63;;;0.70;99.90;;;;;;5094543;28;20051;-70
2021/11/28 00:46:33;;;;;;;28.75;15.02;;;0.70;99.90;;;;;;5094520;28;20024;-70
2021/11/28 00:49:02;;;;;;;30.50;15.55;;;0.70;99.90;;;;;;5096352;28;20465;-70
2021/11/28 00:51:58;;;;;;;27.48;15.52;;;0.70;99.90;;;;;;5094884;28;20028;-70
2021/11/28 00:54:13;;;;;;;32.53;16.27;;;0.70;99.90;;;;;;5095226;28;20048;-70
2021/11/28 00:56:39;;;;;;;33.50;16.58;;;0.70;99.90;;;;;;5096165;28;20541;-70
2021/11/28 00:59:04;;;;;;;29.75;16.73;;;0.70;99.90;;;;;;5094653;28;20020;-70
2021/11/28 01:01:30;;;;;;;29.17;15.50;;;0.70;99.90;;;;;;5096022;28;20028;-70
2021/11/28 01:03:55;;;;;;;26.10;14.18;;;0.70;99.90;;;;;;5095073;28;20051;-70
2021/11/28 01:06:21;;;;;;;26.50;14.93;;;0.70;99.90;;;;;;5095952;28;20028;-70
2021/11/28 01:08:46;;;;;;;25.88;15.23;;;0.70;99.90;;;;;;5095936;28;20030;-70
2021/11/28 01:11:12;;;;;;;26.08;14.77;;;0.70;99.90;;;;;;5094332;28;20051;-69
2021/11/28 01:13:38;;;;;;;22.90;13.23;;;0.70;99.90;;;;;;5093969;28;20024;-70
2021/11/28 01:16:03;;;;;;;19.52;12.95;;;0.70;99.90;;;;;;5095791;28;20020;-70
2021/11/28 01:18:32;;;;;;;20.50;12.68;;;0.60;99.90;;;;;;5095720;28;20468;-70
2021/11/28 01:20:58;;;;;;;21.67;12.88;;;0.50;99.90;;;;;;5095149;28;20492;-70
2021/11/28 01:23:23;;;;;;;24.23;13.35;;;0.40;99.90;;;;;;5095650;28;20028;-69
2021/11/28 01:25:49;;;;;;;21.50;13.55;;;0.30;99.90;;;;;;5094111;28;20028;-70
2021/11/28 01:28:15;;;;;;;21.95;13.30;;;0.20;99.90;;;;;;5094389;28;20119;-70
2021/11/28 01:30:40;;;;;;;24.05;13.82;;;0.10;99.90;;;;;;5095217;28;20024;-70
2021/11/28 01:33:06;;;;;;;23.10;13.25;;;0.00;99.90;;;;;;5095134;28;20028;-70
2021/11/28 01:35:32;;;;;;;24.42;12.75;;;-0.10;99.90;;;;;;5094431;28;20077;-70
2021/11/28 01:37:57;;;;;;;24.15;11.65;;;-0.20;99.90;;;;;;5093402;28;20024;-70
2021/11/28 01:40:23;;;;;;;25.05;12.55;;;-0.30;99.90;;;;;;5093528;28;20030;-70
2021/11/28 01:42:51;;;;;;;20.10;12.55;;;-0.40;99.90;;;;;;5093616;28;20030;-70
2021/11/28 01:45:24;;;;;;;22.20;12.18;;;-0.50;99.90;;;;;;5095034;28;20048;-70
2021/11/28 01:47:51;;;;;;;20.58;12.27;;;-0.60;99.90;;;;;;5093445;28;20024;-69
2021/11/28 01:50:17;;;;;;;21.90;12.27;;;-0.60;99.90;;;;;;5093339;28;20069;-69
2021/11/28 01:52:42;;;;;;;19.02;11.68;;;-0.70;99.90;;;;;;5094605;28;20078;-71
2021/11/28 01:55:12;;;;;;;21.98;11.38;;;-0.70;99.90;;;;;;5093618;28;20051;-70
2021/11/28 01:57:39;;;;;;;16.65;10.80;;;-0.80;99.90;;;;;;5093624;28;20020;-69
2021/11/28 02:00:12;;;;;;;22.67;12.10;;;-0.90;99.90;;;;;;5093271;28;20059;-69
2021/11/28 02:02:38;;;;;;;21.83;12.32;;;-1.00;99.90;;;;;;5094948;28;20077;-68
2021/11/28 02:05:04;;;;;;;20.95;12.70;;;-1.00;99.90;;;;;;5094838;28;20036;-70
2021/11/28 02:07:30;;;;;;;21.38;11.75;;;-1.10;99.90;;;;;;5094853;28;20169;-70
2021/11/28 02:09:56;;;;;;;21.98;12.00;;;-1.10;99.90;;;;;;5094529;28;20024;-69
2021/11/28 02:12:24;;;;;;;23.33;12.52;;;;;;;;;;5094754;28;20023;-69
2021/11/28 02:14:50;;;;;;;22.88;12.30;;;;;;;;;;5094390;28;20420;-69
2021/11/28 02:17:17;;;;;;;20.08;11.80;;;;;;;;;;5094416;28;20085;-68
2021/11/28 02:19:43;;;;;;;21.77;11.50;;;;;;;;;;5094377;28;20028;-69
2021/11/28 02:22:09;;;;;;;20.05;11.40;;;;;;;;;;5092795;28;20034;-68
2021/11/28 02:24:35;;;;;;;21.92;12.32;;;;;;;;;;5094282;28;20031;-69
2021/11/28 02:27:01;;;;;;;21.33;11.55;;;;;;;;;;5094514;28;20032;-68
2021/11/28 02:29:27;;;;;;;20.33;11.52;;;;;;;;;;5093236;28;20077;-68
2021/11/28 02:31:53;;;;;;;21.98;11.77;;;;;;;;;;5094189;28;20024;-69
2021/11/28 02:34:21;;;;;;;22.95;12.00;;;;;;;;;;5092835;28;20035;-69
2021/11/28 02:36:50;;;;;;;19.80;11.65;;;;;;;;;;5094123;28;20020;-69
2021/11/28 02:39:16;;;;;;;21.83;12.25;;;;;;;;;;5094100;28;20080;-68
2021/11/28 02:41:43;;;;;;;20.02;12.10;;;;;;;;;;5094062;28;20027;-69
2021/11/28 02:44:09;;;;;;;23.35;12.10;;;;;;;;;;5093744;28;20024;-69
2021/11/28 02:46:35;;;;;;;21.10;12.40;;;;;;;;;;5093992;28;20032;-70
2021/11/28 02:49:01;;;;;;;21.58;11.80;;;;;;;;;;5092271;28;20036;-70
2021/11/28 02:51:27;;;;;;;23.88;12.45;;;;;;;;;;5093975;28;20031;-69
2021/11/28 02:53:53;;;;;;;27.15;12.50;;;;;;;;;;5093460;28;20123;-69
2021/11/28 02:56:19;;;;;;;27.70;12.73;;;;;;;;;;5093896;28;20028;-70
2021/11/28 02:58:46;;;;;;;22.95;13.55;;;;;;;;;;5092340;28;20024;-69
2021/11/28 03:01:15;;;;;;;21.15;12.48;;;;;;;;;;5093815;28;20016;-69
2021/11/28 03:03:41;;;;;;;21.15;11.88;;;;;;;;;;5093810;28;20098;-70
2021/11/28 03:06:07;;;;;;;19.67;11.35;;;;;;;;;;5093104;28;20051;-69
2021/11/28 03:08:34;;;;;;;22.80;12.50;;;;;;;;;;5092612;28;20020;-69
2021/11/28 03:11:00;;;;;;;31.08;15.25;;;;;;;;;;5093779;28;20025;-70
2021/11/28 03:13:29;;;;;;;29.35;15.88;;;;;;;;;;5092668;28;20107;-70
2021/11/28 03:15:57;;;;;;;27.35;14.52;;;;;;;;;;5092185;28;20020;-70
2021/11/28 03:18:24;;;;;;;22.88;13.85;;;;;;;;;;5093698;28;20091;-70
2021/11/28 03:20:52;;;;;;;25.50;14.73;;;;;;;;;;5093676;28;20491;-70
2021/11/28 03:23:18;;;;;;;30.52;14.23;;;;;;;;;;5092133;28;20026;-70
2021/11/28 03:25:44;;;;;;;23.48;13.45;;;;;;;;;;5093638;28;20096;-69
2021/11/28 03:28:15;;;;;;;23.58;12.65;;;;;;;;;;5093639;28;20099;-70
2021/11/28 03:30:41;;;;;;;32.25;13.75;;;;;;;;;;5093601;28;20032;-70
2021/11/28 03:33:07;;;;;;;26.33;13.00;;;;;;;;;;5092004;28;20028;-70
2021/11/28 03:35:33;;;;;;;24.33;12.30;;;;;;;;;;5093550;28;20366;-70
2021/11/28 03:37:59;;;;;;;20.40;11.88;;;;;;;;;;5093565;28;20078;-70
2021/11/28 03:40:25;;;;;;;24.58;12.30;;;;;;;;;;5093500;28;20039;-70
2021/11/28 03:42:51;;;;;;;17.42;11.38;;;;;;;;;;5093776;28;20028;-70
2021/11/28 03:45:18;;;;;;;20.40;10.68;;;;;;;;;;5092472;28;20030;-70
2021/11/28 03:47:45;;;;;;;19.00;11.45;;;;;;;;;;5091827;28;20016;-70
2021/11/28 03:50:11;;;;;;;17.15;10.82;;;;;;;;;;5093152;28;20032;-70
2021/11/28 03:52:37;;;;;;;19.92;10.65;;;;;;;;;;5093180;28;20016;-70
2021/11/28 03:55:04;;;;;;;21.35;11.85;;;;;;;;;;5093308;28;20027;-70
2021/11/28 03:57:30;;;;;;;18.88;10.82;;;;;;;;;;5092328;28;20039;-70
2021/11/28 03:59:56;;;;;;;19.85;11.00;;;;;;;;;;5093349;28;20093;-70
2021/11/28 04:02:23;;;;;;;18.50;10.65;;;;;;;;;;5096504;28;20016;-70
2021/11/28 04:04:49;;;;;;;20.92;11.57;;;;;;;;;;5096959;28;20030;-70
2021/11/28 04:07:15;;;;;;;19.65;11.25;;;;;;;;;;5096906;28;20082;-69
2021/11/28 04:09:41;;;;;;;18.75;11.05;;;;;;;;;;5096860;28;20040;-69
2021/11/28 04:12:07;;;;;;;19.23;10.38;;;;;;;;;;5095268;28;20370;-69
2021/11/28 04:14:33;;;;;;;19.30;10.57;;;;;;;;;;5095692;28;20067;-70
2021/11/28 04:16:59;;;;;;;21.00;11.63;;;;;;;;;;5096733;28;20055;-69
2021/11/28 04:19:25;;;;;;;18.80;11.10;;;;;;;;;;5096682;28;20028;-69
2021/11/28 04:21:52;;;;;;;24.98;12.63;;;;;;;;;;5096605;28;20027;-70
2021/11/28 04:24:18;;;;;;;23.75;12.32;;;;;;;;;;5096542;28;20126;-70
2021/11/28 04:26:44;;;;;;;18.40;11.07;;;;;;;;;;5078184;28;20016;-70
2021/11/28 04:29:10;;;;;;;22.45;11.27;;;;;;;;;;5096522;28;20028;-70
2021/11/28 04:31:36;;;;;;;19.30;11.35;;;;;;;;;;5096459;28;20031;-70
2021/11/28 04:34:02;;;;;;;27.73;11.35;;;;;;;;;;5095128;28;20349;-70
2021/11/28 04:36:28;;;;;;;21.35;11.13;;;;;;;;;;5096359;28;20469;-70
2021/11/28 04:38:54;;;;;;;20.88;11.27;;;;;;;;;;5096254;28;20024;-70
2021/11/28 04:41:20;;;;;;;20.13;11.70;;;;;;;;;;5096268;28;20030;-70
2021/11/28 04:43:46;;;;;;;21.27;11.40;;;;;;;;;;5096253;28;20031;-69
2021/11/28 04:46:12;;;;;;;18.67;11.68;;;;;;;;;;5096189;28;20051;-69
2021/11/28 04:48:38;;;;;;;19.95;10.60;;;;;;;;;;5094598;28;20378;-69
2021/11/28 04:51:04;;;;;;;22.10;11.43;;;;;;;;;;5096074;28;20024;-70
2021/11/28 04:53:30;;;;;;;17.95;12.13;;;;;;;;;;5095599;28;20058;-70
2021/11/28 04:55:56;;;;;;;19.40;11.90;;;;;;;;;;5096018;28;20025;-70
2021/11/28 04:58:22;;;;;;;20.08;11.38;;;;;;;;;;5094396;28;20107;-70
2021/11/28 05:00:48;;;;;;;23.52;11.35;;;;;;;;;;5096168;28;20354;-70
2021/11/28 05:03:14;;;;;;;24.00;12.93;;;;;;;;;;5095848;28;20034;-70
2021/11/28 05:05:40;;;;;;;22.38;12.27;;;;;;;;;;5096070;28;20037;-69
2021/11/28 05:08:05;;;;;;;23.20;12.90;;;;;;;;;;5095753;28;20036;-69
2021/11/28 05:10:32;;;;;;;22.95;12.35;;;;;;;;;;5095715;28;20381;-70
2021/11/28 05:12:57;;;;;;;24.17;12.38;;;;;;;;;;5095577;28;20453;-69
2021/11/28 05:15:23;;;;;;;20.23;11.82;;;;;;;;;;5095572;28;20020;-69
2021/11/28 05:17:49;;;;;;;31.33;13.82;;;;;;;;;;5095574;28;20027;-70
2021/11/28 05:20:16;;;;;;;24.52;13.32;;;;;;;;;;5095553;28;20376;-70
2021/11/28 05:22:42;;;;;;;22.38;12.68;;;;;;;;;;5095442;28;20483;-69
2021/11/28 05:25:08;;;;;;;26.58;13.40;;;;;;;;;;5095407;28;20103;-70
2021/11/28 05:27:34;;;;;;;28.80;13.25;;;;;;;;;;5095360;28;20098;-70
2021/11/28 05:30:00;;;;;;;28.73;14.05;;;;;;;;;;5093781;28;20387;-69
2021/11/28 05:32:26;;;;;;;25.00;13.70;;;;;;;;;;5094543;28;20026;-70
2021/11/28 05:34:52;;;;;;;27.55;14.02;;;;;;;;;;5095111;28;20024;-70
2021/11/28 05:37:18;;;;;;;26.90;14.30;;;;;;;;;;5095192;28;20020;-69
2021/11/28 05:39:45;;;;;;;29.70;13.45;;;;;;;;;;5095119;28;20016;-70
2021/11/28 05:42:11;;;;;;;30.33;14.27;;;;;;;;;;5095070;28;20069;-70
2021/11/28 05:44:37;;;;;;;27.98;14.70;;;;;;;;;;5093500;28;20031;-69
2021/11/28 05:47:03;;;;;;;26.73;13.70;;;;;;;;;;5094964;28;20020;-70
2021/11/28 05:49:29;;;;;;;27.98;13.82;;;;;;;;;;5094951;28;20024;-70
2021/11/28 05:51:56;;;;;;;26.67;14.35;;;;;;;;;;5093369;28;20491;-70
2021/11/28 05:54:22;;;;;;;24.20;13.40;;;;;;;;;;5094404;28;20048;-70
2021/11/28 05:56:48;;;;;;;25.20;13.85;;;;;;;;;;5093270;28;20123;-70
2021/11/28 05:59:14;;;;;;;33.55;15.32;;;;;;;;;;5094787;28;20063;-70
2021/11/28 06:01:40;;;;;;;23.50;13.75;;;;;;;;;;5094757;28;20035;-70
2021/11/28 06:04:06;;;;;;;26.60;12.70;;;;;;;;;;5094710;28;20148;-70
2021/11/28 06:06:32;;;;;;;23.30;12.85;;;;;;;;;;5094626;28;20028;-69
2021/11/28 06:08:58;;;;;;;32.95;14.90;;;;;;;;;;5093417;28;20024;-69
2021/11/28 06:11:24;;;;;;;25.95;13.52;;;;;;;;;;5094566;28;20027;-70
2021/11/28 06:13:50;;;;;;;26.77;13.95;;;;;;;;;;5094427;28;20488;-70
2021/11/28 06:16:16;;;;;;;26.50;13.50;;;;;;;;;;5094483;28;20024;-69
2021/11/28 06:18:42;;;;;;;26.05;14.43;;;;;;;;;;5094384;28;20024;-70
2021/11/28 06:21:08;;;;;;;26.02;14.20;;;;;;;;;;5094392;28;20024;-69
2021/11/28 06:23:34;;;;;;;29.85;15.75;;;;;;;;;;5093917;28;20396;-70
2021/11/28 06:26:00;;;;;;;29.63;15.95;;;;;;;;;;5094300;28;20016;-70
2021/11/28 06:28:26;;;;;;;27.60;14.85;;;;;;;;;;5094273;28;20038;-70
2021/11/28 06:30:52;;;;;;;33.42;16.17;;;;;;;;;;5093019;28;20482;-69
2021/11/28 06:33:18;;;;;;;30.33;15.15;;;;;;;;;;5094127;28;20037;-70
2021/11/28 06:35:44;;;;;;;26.98;15.57;;;;;;;;;;5094175;28;20022;-69
2021/11/28 06:38:10;;;;;;;32.13;15.32;;;;;;;;;;5094092;28;20016;-68
2021/11/28 06:40:36;;;;;;;37.42;15.35;;;;;;;;;;5094098;28;20144;-70
2021/11/28 06:43:02;;;;;;;29.65;15.43;;;;;;;;;;5094055;28;20152;-69
2021/11/28 06:45:28;;;;;;;28.17;14.55;;;;;;;;;;5093773;28;20380;-69
2021/11/28 06:47:54;;;;;;;32.90;15.35;;;-0.80;99.90;;;;;;5093957;28;20405;-69
2021/11/28 06:50:19;;;;;;;28.80;14.48;;;-0.70;99.90;;;;;;5094236;28;20050;-69
2021/11/28 06:52:46;;;;;;;32.13;16.33;;;-0.60;99.90;;;;;;5093469;28;20047;-70
2021/11/28 06:55:12;;;;;;;29.25;16.30;;;-0.60;99.90;;;;;;5094050;28;20020;-70
2021/11/28 06:57:37;;;;;;;28.58;16.27;;;-0.60;99.90;;;;;;5075561;28;20050;-69
2021/11/28 07:00:05;;;;;;;27.95;16.40;;;-0.60;99.90;;;;;;5093846;28;20024;-69
2021/11/28 07:02:31;;;;;;;28.42;15.63;;;-0.60;99.90;;;;;;5094110;28;20035;-69
2021/11/28 07:04:58;;;;;;;30.10;16.90;;;-0.60;99.90;;;;;;5092934;28;20020;-68
2021/11/28 07:07:25;;;;;;;37.88;18.92;;;-0.50;99.90;;;;;;5093768;28;20016;-69
2021/11/28 07:09:50;;;;;;;36.40;18.08;;;-0.50;99.90;;;;;;5092257;28;20480;-70
2021/11/28 07:12:16;;;;;;;30.20;17.50;;;-0.50;99.90;;;;;;5093489;28;20043;-70
2021/11/28 07:14:41;;;;;;;31.25;16.17;;;-0.50;99.90;;;;;;5093911;28;20024;-69
2021/11/28 07:17:07;;;;;;;28.98;17.45;;;-0.40;99.90;;;;;;5092541;28;20021;-69
2021/11/28 07:19:33;;;;;;;32.85;17.33;;;-0.40;99.90;;;;;;5093952;28;20020;-69
2021/11/28 07:21:59;;;;;;;35.42;18.02;;;-0.40;99.90;;;;;;5093954;28;20016;-70
2021/11/28 07:24:24;;;;;;;33.78;18.45;;;-0.40;99.90;;;;;;5093311;28;20025;-69
2021/11/28 07:26:51;;;;;;;37.33;18.85;;;-0.30;99.90;;;;;;5092041;28;20032;-70
2021/11/28 07:29:17;;;;;;;33.53;19.10;;;-0.30;99.90;;;;;;5093613;28;20028;-70
2021/11/28 07:31:42;;;;;;;33.88;17.70;;;-0.20;99.90;;;;;;5093855;28;20468;-70
2021/11/28 07:34:10;;;;;;;31.23;16.80;;;-0.20;99.90;;;;;;5093727;28;20024;-69
2021/11/28 07:36:36;;;;;;;31.17;17.35;;;-0.10;99.90;;;;;;5095781;28;20020;-70
2021/11/28 07:39:04;;;;;;;29.20;16.88;;;0.00;99.90;;;;;;5096265;28;20016;-70
2021/11/28 07:41:29;;;;;;;28.13;15.18;;;0.00;99.90;;;;;;5097414;28;20107;-70
2021/11/28 07:43:55;;;;;;;29.17;16.73;;;0.10;99.90;;;;;;5097605;28;20153;-70
2021/11/28 07:46:21;;;;;;;30.25;17.30;;;0.20;99.90;;;;;;5097578;28;20028;-69
2021/11/28 07:48:46;;;;;;;28.90;16.25;;;0.30;99.90;;;;;;5097525;28;20457;-70
2021/11/28 07:51:12;;;;;;;31.25;16.58;;;0.30;99.90;;;;;;5097452;28;20034;-70
2021/11/28 07:53:38;;;;;;;28.70;16.08;;;0.30;99.90;;;;;;5078418;28;20048;-70
2021/11/28 07:56:04;;;;;;;30.20;16.60;;;0.40;99.90;;;;;;5095659;28;20033;-70
2021/11/28 07:58:30;;;;;;;33.65;16.55;;;0.50;99.90;;;;;;5095560;28;20192;-70
2021/11/28 08:00:56;;;;;;;34.95;17.95;;;0.60;99.90;;;;;;5096760;28;20355;-70
2021/11/28 08:03:22;;;;;;;34.33;18.23;;;0.70;99.90;;;;;;5097266;28;20020;-70
2021/11/28 08:05:47;;;;;;;29.88;17.92;;;0.80;99.90;;;;;;5095425;28;20027;-69
2021/11/28 08:08:16;;;;;;;29.40;17.05;;;0.90;99.90;;;;;;5097166;28;20024;-70
2021/11/28 08:10:42;;;;;;;41.47;17.85;;;1.00;99.90;;;;;;5095330;28;20028;-70
2021/11/28 08:13:07;;;;;;;34.80;17.15;;;1.10;99.90;;;;;;5078896;28;20031;-70
2021/11/28 08:15:33;;;;;;;34.88;18.50;;;1.20;99.90;;;;;;5095162;28;20024;-70
2021/11/28 08:17:58;;;;;;;30.08;17.42;;;1.30;99.90;;;;;;5096977;28;20020;-70
2021/11/28 08:20:25;;;;;;;31.77;17.98;;;1.40;99.90;;;;;;5096650;28;20491;-71
2021/11/28 08:22:50;;;;;;;34.00;17.17;;;1.50;99.90;;;;;;5095340;28;20035;-71
2021/11/28 08:25:18;;;;;;;34.28;17.40;;;1.60;99.90;;;;;;5095017;28;20028;-70
2021/11/28 08:27:44;;;;;;;22.50;14.57;;;1.60;99.90;;;;;;5095679;28;20045;-70
2021/11/28 08:30:14;;;;;;;28.90;16.10;;;1.60;99.90;;;;;;5095322;28;20031;-71
2021/11/28 08:32:41;;;;;;;33.60;16.95;;;1.60;99.90;;;;;;5095730;28;20028;-70
2021/11/28 08:35:09;;;;;;;30.92;16.85;;;1.60;99.90;;;;;;5094667;28;20388;-70
2021/11/28 08:37:35;;;;;;;29.70;18.02;;;1.40;99.90;;;;;;5096315;28;20423;-70
2021/11/28 08:40:04;;;;;;;33.20;17.92;;;1.30;99.90;;;;;;5095983;28;20052;-70
2021/11/28 08:42:32;;;;;;;29.52;17.15;;;1.20;99.90;;;;;;5095366;28;20035;-70
2021/11/28 08:44:59;;;;;;;31.58;17.25;;;1.10;99.90;;;;;;5096492;28;20024;-70
2021/11/28 08:47:25;;;;;;;27.40;17.00;;;1.10;99.90;;;;;;5096062;28;20107;-70
2021/11/28 08:49:51;;;;;;;35.65;19.08;;;1.00;99.90;;;;;;5094893;28;20453;-70
2021/11/28 08:52:16;;;;;;;29.40;16.70;;;1.00;99.90;;;;;;5095245;28;20038;-70
2021/11/28 08:54:42;;;;;;;28.52;17.55;;;1.20;99.90;;;;;;5077462;28;20472;-70
2021/11/28 08:57:07;;;;;;;27.58;17.15;;;1.30;99.90;;;;;;5095853;28;20058;-71
2021/11/28 08:59:33;;;;;;;28.15;16.17;;;1.70;99.90;;;;;;5095078;28;20116;-70
2021/11/28 09:01:59;;;;;;;24.75;14.25;;;2.80;99.90;;;;;;5094364;28;20031;-71
2021/11/28 09:04:25;;;;;;;23.00;14.10;;;3.40;99.90;;;;;;5095772;28;20020;-71
2021/11/28 09:06:50;;;;;;;22.25;12.25;;;4.20;99.90;;;;;;5094236;28;20028;-70
2021/11/28 09:09:16;;;;;;;23.60;12.05;;;5.00;99.90;;;;;;5096006;28;20461;-70
2021/11/28 09:11:42;;;;;;;16.77;11.45;;;5.30;99.90;;;;;;5094151;28;20024;-71
2021/11/28 09:14:08;;;;;;;20.50;12.07;;;5.20;99.90;;;;;;5094353;28;20535;-70
2021/11/28 09:16:34;;;;;;;19.20;11.48;;;5.60;99.90;;;;;;5094338;28;20177;-70
2021/11/28 09:19:06;;;;;;;21.98;12.35;;;6.00;99.90;;;;;;5094359;28;20031;-71
2021/11/28 09:21:32;;;;;;;17.65;12.23;;;6.50;99.90;;;;;;5078016;28;20020;-71
2021/11/28 09:26:44;;;;;;;23.00;13.48;;;7.30;99.90;;;;;;5093981;28;20460;-71
2021/11/28 09:29:10;;;;;;;20.33;13.07;;;7.30;99.90;;;;;;5094635;28;20032;-71
2021/11/28 09:31:35;;;;;;;21.50;14.15;;;7.50;99.90;;;;;;5094078;28;20024;-71
2021/11/28 09:34:02;;;;;;;25.27;15.40;;;7.70;99.90;;;;;;5093716;28;20036;-71
2021/11/28 09:36:31;;;;;;;23.15;15.82;;;8.00;99.90;;;;;;5095453;28;20019;-71
2021/11/28 09:38:58;;;;;;;24.27;15.45;;;8.00;99.90;;;;;;5094423;28;20339;-70
2021/11/28 09:41:25;;;;;;;28.45;14.88;;;8.20;99.90;;;;;;5095054;28;20065;-71
2021/11/28 09:43:54;;;;;;;21.05;14.75;;;8.10;99.90;;;;;;5095007;28;20068;-71
2021/11/28 09:46:23;;;;;;;25.23;15.38;;;8.00;99.90;;;;;;5095260;28;20024;-71
2021/11/28 09:48:57;;;;;;;27.13;16.73;;;7.60;99.90;;;;;;5093744;28;20488;-71
2021/11/28 09:51:24;;;;;;;26.92;15.68;;;7.60;99.90;;;;;;5093849;28;20024;-71
2021/11/28 09:53:50;;;;;;;29.50;16.60;;;7.60;99.90;;;;;;5093392;28;20047;-72
2021/11/28 09:56:17;;;;;;;27.25;15.85;;;7.60;99.90;;;;;;5093645;28;20385;-71
2021/11/28 09:58:43;;;;;;;28.33;16.67;;;6.90;99.90;;;;;;5092853;28;20489;-71
2021/11/28 10:01:09;;;;;;;24.08;15.43;;;6.60;99.90;;;;;;5093352;28;20020;-70
2021/11/28 10:03:35;;;;;;;26.58;17.27;;;6.50;99.90;;;;;;5093752;28;20032;-71
2021/11/28 10:06:00;;;;;;;28.15;17.80;;;6.10;99.90;;;;;;5094874;28;20476;-71
2021/11/28 10:08:26;;;;;;;26.02;16.80;;;6.00;99.90;;;;;;5093028;28;20131;-71
2021/11/28 10:11:32;;;;;;;28.27;17.63;;;5.80;99.90;;;;;;5093653;28;20077;-70
2021/11/28 10:13:57;;;;;;;33.60;18.55;;;5.80;99.90;;;;;;5093989;28;20077;-70
2021/11/28 10:16:23;;;;;;;29.75;17.48;;;5.60;99.90;;;;;;5094658;28;20028;-70
2021/11/28 10:18:48;;;;;;;29.30;16.85;;;5.60;99.90;;;;;;5093484;28;20029;-71
2021/11/28 10:21:14;;;;;;;28.90;17.23;;;5.60;99.90;;;;;;5094081;28;20016;-70
2021/11/28 10:24:16;;;;;;;30.00;16.33;;;5.50;99.90;;;;;;5093184;28;20492;-71
2021/11/28 10:27:06;;;;;;;30.38;17.25;;;5.50;99.90;;;;;;5092650;28;20024;-71
2021/11/28 10:29:36;;;;;;;26.90;16.33;;;5.20;99.90;;;;;;5093951;28;20054;-70
2021/11/28 10:32:03;;;;;;;26.98;16.02;;;5.20;99.90;;;;;;5092669;28;20077;-71
2021/11/28 10:34:36;;;;;;;26.92;17.33;;;5.30;99.90;;;;;;5092629;28;20036;-71
2021/11/28 10:37:03;;;;;;;;;;;5.20;99.90;;;;;;5076542;28;20111;-70
2021/11/28 10:39:35;;;;;;;31.88;17.90;;;5.10;99.90;;;;;;5075734;28;20353;-70
2021/11/28 10:42:00;;;;;;;34.55;17.67;;;5.30;99.90;;;;;;5094024;28;20032;-71
2021/11/28 10:44:26;;;;;;;36.67;22.38;;;5.30;99.90;;;;;;5093684;28;20035;-70
2021/11/28 10:46:58;;;;;;;35.90;20.77;;;5.20;99.90;;;;;;5094175;28;20032;-71
2021/11/28 10:49:25;;;;;;;33.47;19.05;;;5.00;99.90;;;;;;5092367;28;20035;-71
2021/11/28 10:51:54;;;;;;;41.22;20.92;;;4.80;99.90;;;;;;5094192;28;20536;-70
2021/11/28 10:54:38;;;;;;;35.78;20.20;;;4.80;99.90;;;;;;5093497;28;20052;-71
2021/11/28 10:59:57;;;;;;;39.85;20.90;;;4.90;99.90;;;;;;5112248;27;20376;-71
2021/11/28 11:02:29;;;;;;;32.58;19.45;;;4.90;99.90;;;;;;5110479;28;20167;-71
2021/11/28 11:04:56;;;;;;;39.67;21.15;;;5.00;99.90;;;;;;5093131;28;20016;-71
2021/11/28 11:07:24;;;;;;;39.97;20.70;;;5.00;99.90;;;;;;5093805;28;20051;-71
2021/11/28 11:09:52;;;;;;;39.90;21.27;;;5.00;99.90;;;;;;5111775;28;20016;-71
2021/11/28 11:12:35;;;;;;;46.30;23.02;;;5.00;99.90;;;;;;5111194;28;20012;-71
2021/11/28 11:15:02;;;;;;;43.35;22.60;;;5.00;99.90;;;;;;5111050;28;20024;-70
2021/11/28 11:17:31;;;;;;;42.25;22.25;;;5.20;99.90;;;;;;5111148;28;20026;-70
2021/11/28 11:19:58;;;;;;;41.47;22.98;;;5.20;99.90;;;;;;5111497;28;20099;-71
2021/11/28 11:22:29;;;;;;;41.60;21.35;;;5.30;99.90;;;;;;5109578;28;20461;-70
2021/11/28 11:24:58;;;;;;;45.10;23.55;;;5.10;99.90;;;;;;5110148;28;20024;-70
2021/11/28 11:30:08;;;;;;;53.05;25.65;;;5.00;99.90;;;;;;5112044;27;20109;-70
2021/11/28 11:32:55;;;;;;;38.67;21.58;;;5.00;99.90;;;;;;5109928;28;20073;-69
2021/11/28 11:35:25;;;;;;;38.95;20.95;;;5.00;99.90;;;;;;5111194;28;20026;-70
2021/11/28 11:37:57;;;;;;;34.92;20.05;;;5.00;99.90;;;;;;5111613;28;20074;-70
2021/11/28 11:40:23;;;;;;;37.65;20.98;;;5.00;99.90;;;;;;5111190;28;20016;-70
2021/11/28 11:42:52;;;;;;;38.58;20.80;;;5.00;99.90;;;;;;5110042;28;20385;-70
2021/11/28 11:45:21;;;;;;;38.47;21.38;;;5.00;99.90;;;;;;5110145;28;20047;-70
2021/11/28 11:47:46;;;;;;;33.40;20.10;;;5.10;99.90;;;;;;5111497;28;20024;-70
2021/11/28 11:50:16;;;;;;;41.00;21.60;;;5.10;99.90;;;;;;5109979;28;20024;-70
2021/11/28 11:52:42;;;;;;;41.13;22.60;;;5.10;99.90;;;;;;5111364;28;20077;-70
2021/11/28 11:55:12;;;;;;;43.03;22.70;;;5.10;99.90;;;;;;5110196;28;20028;-70
2021/11/28 11:57:46;;;;;;;40.03;22.42;;;5.00;99.90;;;;;;5110236;28;20594;-70
2021/11/28 12:00:36;;;;;;;40.05;21.92;;;5.10;99.90;;;;;;5111432;28;20032;-70
2021/11/28 12:03:19;;;;;;;40.80;20.95;;;5.10;99.90;;;;;;5110747;28;20023;-71
2021/11/28 12:05:48;;;;;;;44.42;22.25;;;5.10;99.90;;;;;;5109435;28;20024;-70
2021/11/28 12:10:57;;;;;;;40.20;22.27;;;5.10;99.90;;;;;;5091782;28;20360;-71
2021/11/28 12:18:44;;;;;;;41.17;23.48;;;5.00;99.90;;;;;;5112011;27;20129;-71
2021/11/28 12:21:12;;;;;;;45.08;24.00;;;4.90;99.90;;;;;;5111889;28;20028;-70
2021/11/28 12:23:53;;;;;;;41.33;23.13;;;5.00;99.90;;;;;;5110296;28;20095;-70
2021/11/28 12:32:14;;;;;;;44.33;24.38;;;5.00;99.90;;;;;;5071537;28;20379;-70
2021/11/28 12:34:43;;;;;;;42.13;24.67;;;5.10;99.90;;;;;;5071223;28;20343;-70
2021/11/28 12:37:33;;;;;;;47.65;25.10;;;5.10;99.90;;;;;;5053013;28;20543;-71
2021/11/28 12:40:19;;;;;;;47.50;27.08;;;5.30;99.90;;;;;;5069958;28;20035;-70
2021/11/28 12:42:45;;;;;;;46.08;25.70;;;5.40;99.90;;;;;;5070489;28;20048;-70
2021/11/28 12:45:12;;;;;;;40.85;23.52;;;5.30;99.90;;;;;;5069152;28;20036;-70
2021/11/28 12:47:38;;;;;;;47.55;26.25;;;5.30;99.90;;;;;;5069562;28;20024;-70
2021/11/28 12:50:16;;;;;;;47.05;25.88;;;5.30;99.90;;;;;;5070328;28;20029;-70
2021/11/28 12:52:46;;;;;;;45.53;24.33;;;5.40;99.90;;;;;;5053537;28;20029;-70
2021/11/28 12:55:18;;;;;;;43.75;25.73;;;5.20;99.90;;;;;;5070865;28;20531;-70
2021/11/28 12:58:05;;;;;;;45.05;24.85;;;5.30;99.90;;;;;;5069668;28;20043;-70
2021/11/28 13:00:39;;;;;;;40.58;24.23;;;5.40;99.90;;;;;;5069466;28;20032;-71
2021/11/28 13:05:51;;;;;;;46.90;26.20;;;5.30;99.90;;;;;;5073582;27;20398;-71
2021/11/28 13:08:26;;;;;;;48.83;27.73;;;5.10;99.90;;;;;;5069378;28;20032;-71
2021/11/28 13:10:53;;;;;;;50.03;26.92;;;5.00;99.90;;;;;;5070796;28;20021;-71
2021/11/28 13:13:27;;;;;;;48.67;27.15;;;4.90;99.90;;;;;;5071047;28;20024;-70
2021/11/28 13:15:58;;;;;;;50.90;28.08;;;4.80;99.90;;;;;;5070836;28;20527;-70
2021/11/28 13:18:29;;;;;;;53.88;27.30;;;4.70;99.90;;;;;;5085964;28;20029;-70
2021/11/28 13:20:59;;;;;;;50.20;27.15;;;4.70;99.90;;;;;;5070897;28;20029;-70
2021/11/28 13:23:25;;;;;;;39.03;21.80;;;4.80;99.90;;;;;;5085720;28;20024;-71
2021/11/28 13:25:55;;;;;;;37.70;21.58;;;4.70;99.90;;;;;;5085878;28;20066;-70
2021/11/28 13:28:25;;;;;;;33.47;18.33;;;4.70;99.90;;;;;;5070461;28;20021;-70
2021/11/28 13:30:55;;;;;;;30.88;17.15;;;4.70;99.90;;;;;;5085670;28;20013;-70
2021/11/28 13:33:24;;;;;;;31.48;16.95;;;4.70;99.90;;;;;;5070370;28;20470;-71
2021/11/28 13:35:59;;;;;;;36.53;18.77;;;4.70;99.90;;;;;;5068573;28;20032;-70
2021/11/28 13:38:27;;;;;;;36.33;20.58;;;4.70;99.90;;;;;;5068291;28;20078;-70
2021/11/28 13:41:17;;;;;;;42.05;23.60;;;4.70;99.90;;;;;;5070097;28;20366;-70